Terminal Aerodrome Forecast
Issued by NWS

Home | Current Version | Previous Version | Text Only | Print | Product List | Glossary On
Versions: 1 2 3 4 5 6 7 8 9 10 11 12 13 14 15 16 17 18 19 20 21 22 23 24 25
000
FTUS43 KDLH 260500
TAFHYR
TAF
KHYR 260520Z 2606/2706 00000KT P6SM OVC022
      TEMPO 2606/2610 4SM BR SCT004
     FM261000 28006KT 6SM BR SCT014
     FM261400 27010KT P6SM SKC
     FM262100 23012KT P6SM SCT100
     FM270100 23005KT P6SM VCSH BKN050=

USA.gov is the U.S. government's official web portal to all federal, state and local government web resources and services.